sensor_id;sensor_type;location;lat;lon;timestamp;P1;durP1;ratioP1;P2;durP2;ratioP2
51957;SDS011;41120;51.820;20.804;2024-01-15T00:01:11;23.27;;;11.63;;
51957;SDS011;41120;51.820;20.804;2024-01-15T00:07:05;23.55;;;12.02;;
51957;SDS011;41120;51.820;20.804;2024-01-15T00:12:04;19.55;;;11.15;;
51957;SDS011;41120;51.820;20.804;2024-01-15T00:14:46;23.48;;;12.73;;
51957;SDS011;41120;51.820;20.804;2024-01-15T00:19:59;23.27;;;13.05;;
51957;SDS011;41120;51.820;20.804;2024-01-15T00:22:25;18.85;;;12.10;;
51957;SDS011;41120;51.820;20.804;2024-01-15T00:24:52;21.17;;;11.60;;
51957;SDS011;41120;51.820;20.804;2024-01-15T00:27:19;21.05;;;12.18;;
51957;SDS011;41120;51.820;20.804;2024-01-15T00:29:45;21.88;;;11.88;;
51957;SDS011;41120;51.820;20.804;2024-01-15T00:32:11;21.07;;;11.73;;
51957;SDS011;41120;51.820;20.804;2024-01-15T00:34:39;24.58;;;12.55;;
51957;SDS011;41120;51.820;20.804;2024-01-15T00:37:05;22.33;;;11.88;;
51957;SDS011;41120;51.820;20.804;2024-01-15T00:39:37;25.15;;;12.35;;
51957;SDS011;41120;51.820;20.804;2024-01-15T00:42:03;20.00;;;11.57;;
51957;SDS011;41120;51.820;20.804;2024-01-15T00:44:29;21.58;;;11.95;;
51957;SDS011;41120;51.820;20.804;2024-01-15T00:46:56;23.50;;;11.77;;
51957;SDS011;41120;51.820;20.804;2024-01-15T00:52:23;19.85;;;11.77;;
51957;SDS011;41120;51.820;20.804;2024-01-15T00:54:54;24.77;;;12.32;;
51957;SDS011;41120;51.820;20.804;2024-01-15T00:57:23;26.25;;;13.05;;
51957;SDS011;41120;51.820;20.804;2024-01-15T01:08:33;26.98;;;12.30;;
51957;SDS011;41120;51.820;20.804;2024-01-15T01:11:13;24.92;;;11.95;;
51957;SDS011;41120;51.820;20.804;2024-01-15T01:13:54;25.00;;;13.02;;
51957;SDS011;41120;51.820;20.804;2024-01-15T01:22:50;21.35;;;11.13;;
51957;SDS011;41120;51.820;20.804;2024-01-15T01:25:43;19.90;;;11.23;;
51957;SDS011;41120;51.820;20.804;2024-01-15T01:35:18;28.83;;;12.07;;
51957;SDS011;41120;51.820;20.804;2024-01-15T01:38:43;19.58;;;10.10;;
51957;SDS011;41120;51.820;20.804;2024-01-15T01:41:24;24.42;;;11.50;;
51957;SDS011;41120;51.820;20.804;2024-01-15T01:55:55;20.85;;;10.50;;
51957;SDS011;41120;51.820;20.804;2024-01-15T01:58:35;19.67;;;11.18;;
51957;SDS011;41120;51.820;20.804;2024-01-15T02:06:52;20.73;;;10.65;;
51957;SDS011;41120;51.820;20.804;2024-01-15T02:12:56;20.20;;;9.95;;
51957;SDS011;41120;51.820;20.804;2024-01-15T02:15:35;19.65;;;11.15;;
51957;SDS011;41120;51.820;20.804;2024-01-15T02:20:55;19.80;;;10.73;;
51957;SDS011;41120;51.820;20.804;2024-01-15T02:23:21;19.98;;;11.60;;
51957;SDS011;41120;51.820;20.804;2024-01-15T02:25:53;20.52;;;10.35;;
51957;SDS011;41120;51.820;20.804;2024-01-15T02:28:20;24.27;;;10.90;;
51957;SDS011;41120;51.820;20.804;2024-01-15T02:30:49;19.85;;;9.98;;
51957;SDS011;41120;51.820;20.804;2024-01-15T02:33:16;23.23;;;10.85;;
51957;SDS011;41120;51.820;20.804;2024-01-15T02:41:45;17.15;;;9.07;;
51957;SDS011;41120;51.820;20.804;2024-01-15T02:44:22;18.98;;;9.55;;
51957;SDS011;41120;51.820;20.804;2024-01-15T02:49:18;21.00;;;10.00;;
51957;SDS011;41120;51.820;20.804;2024-01-15T02:51:46;16.92;;;9.00;;
51957;SDS011;41120;51.820;20.804;2024-01-15T02:54:12;21.05;;;10.48;;
51957;SDS011;41120;51.820;20.804;2024-01-15T02:56:41;21.45;;;10.80;;
51957;SDS011;41120;51.820;20.804;2024-01-15T02:59:09;17.47;;;9.43;;
51957;SDS011;41120;51.820;20.804;2024-01-15T03:01:36;19.83;;;9.57;;
51957;SDS011;41120;51.820;20.804;2024-01-15T03:04:10;21.48;;;10.18;;
51957;SDS011;41120;51.820;20.804;2024-01-15T03:06:52;18.02;;;9.88;;
51957;SDS011;41120;51.820;20.804;2024-01-15T03:15:20;21.10;;;10.25;;
51957;SDS011;41120;51.820;20.804;2024-01-15T03:18:01;40.90;;;22.92;;
51957;SDS011;41120;51.820;20.804;2024-01-15T03:20:32;41.22;;;21.95;;
51957;SDS011;41120;51.820;20.804;2024-01-15T03:22:58;55.10;;;29.70;;
51957;SDS011;41120;51.820;20.804;2024-01-15T03:25:28;121.65;;;45.92;;
51957;SDS011;41120;51.820;20.804;2024-01-15T03:27:54;256.65;;;108.38;;
51957;SDS011;41120;51.820;20.804;2024-01-15T03:30:21;49.83;;;24.15;;
51957;SDS011;41120;51.820;20.804;2024-01-15T03:32:47;59.28;;;30.95;;
51957;SDS011;41120;51.820;20.804;2024-01-15T03:38:40;29.92;;;17.73;;
51957;SDS011;41120;51.820;20.804;2024-01-15T03:41:12;22.75;;;11.27;;
51957;SDS011;41120;51.820;20.804;2024-01-15T03:43:39;20.85;;;11.25;;
51957;SDS011;41120;51.820;20.804;2024-01-15T03:48:37;18.15;;;9.48;;
51957;SDS011;41120;51.820;20.804;2024-01-15T03:51:19;21.58;;;12.00;;
51957;SDS011;41120;51.820;20.804;2024-01-15T03:53:53;20.95;;;11.05;;
51957;SDS011;41120;51.820;20.804;2024-01-15T04:03:10;35.80;;;22.33;;
51957;SDS011;41120;51.820;20.804;2024-01-15T04:54:06;32.50;;;16.20;;
51957;SDS011;41120;51.820;20.804;2024-01-15T05:10:53;19.00;;;11.27;;
51957;SDS011;41120;51.820;20.804;2024-01-15T05:13:23;29.17;;;15.68;;
51957;SDS011;41120;51.820;20.804;2024-01-15T05:16:09;26.23;;;13.25;;
51957;SDS011;41120;51.820;20.804;2024-01-15T05:18:37;33.90;;;18.42;;
51957;SDS011;41120;51.820;20.804;2024-01-15T05:21:04;34.72;;;15.55;;
51957;SDS011;41120;51.820;20.804;2024-01-15T05:23:39;32.65;;;17.83;;
51957;SDS011;41120;51.820;20.804;2024-01-15T05:29:04;23.55;;;12.63;;
51957;SDS011;41120;51.820;20.804;2024-01-15T05:31:38;36.47;;;19.35;;
51957;SDS011;41120;51.820;20.804;2024-01-15T05:34:11;27.02;;;12.63;;
51957;SDS011;41120;51.820;20.804;2024-01-15T05:36:37;25.38;;;13.02;;
51957;SDS011;41120;51.820;20.804;2024-01-15T05:39:04;23.33;;;11.83;;
51957;SDS011;41120;51.820;20.804;2024-01-15T05:44:38;30.38;;;15.68;;
51957;SDS011;41120;51.820;20.804;2024-01-15T05:50:18;18.95;;;9.20;;
51957;SDS011;41120;51.820;20.804;2024-01-15T05:52:51;28.98;;;14.88;;
51957;SDS011;41120;51.820;20.804;2024-01-15T06:00:40;39.28;;;17.35;;
51957;SDS011;41120;51.820;20.804;2024-01-15T06:03:13;29.30;;;13.60;;
51957;SDS011;41120;51.820;20.804;2024-01-15T06:05:40;31.35;;;13.77;;
51957;SDS011;41120;51.820;20.804;2024-01-15T06:08:07;32.20;;;14.80;;
51957;SDS011;41120;51.820;20.804;2024-01-15T06:10:40;27.95;;;12.95;;
51957;SDS011;41120;51.820;20.804;2024-01-15T06:18:52;16.38;;;9.63;;
51957;SDS011;41120;51.820;20.804;2024-01-15T06:21:20;25.67;;;13.97;;
51957;SDS011;41120;51.820;20.804;2024-01-15T06:23:48;26.33;;;13.50;;
51957;SDS011;41120;51.820;20.804;2024-01-15T06:29:31;46.10;;;21.70;;
51957;SDS011;41120;51.820;20.804;2024-01-15T06:37:37;28.10;;;13.63;;
51957;SDS011;41120;51.820;20.804;2024-01-15T06:43:04;27.27;;;12.45;;
51957;SDS011;41120;51.820;20.804;2024-01-15T06:48:07;49.20;;;22.48;;
51957;SDS011;41120;51.820;20.804;2024-01-15T06:50:34;30.80;;;14.75;;
51957;SDS011;41120;51.820;20.804;2024-01-15T06:53:30;34.92;;;17.10;;
51957;SDS011;41120;51.820;20.804;2024-01-15T06:58:45;36.70;;;17.60;;
51957;SDS011;41120;51.820;20.804;2024-01-15T07:01:20;29.17;;;15.70;;
51957;SDS011;41120;51.820;20.804;2024-01-15T07:03:46;29.70;;;15.23;;
51957;SDS011;41120;51.820;20.804;2024-01-15T07:19:15;32.20;;;16.70;;
51957;SDS011;41120;51.820;20.804;2024-01-15T07:28:07;30.25;;;15.27;;
51957;SDS011;41120;51.820;20.804;2024-01-15T07:30:52;51.20;;;23.73;;
51957;SDS011;41120;51.820;20.804;2024-01-15T07:33:42;31.25;;;14.50;;
51957;SDS011;41120;51.820;20.804;2024-01-15T07:36:08;23.10;;;13.82;;
51957;SDS011;41120;51.820;20.804;2024-01-15T07:38:35;22.85;;;13.32;;
51957;SDS011;41120;51.820;20.804;2024-01-15T07:43:52;19.55;;;12.00;;
51957;SDS011;41120;51.820;20.804;2024-01-15T07:46:21;18.52;;;10.52;;
51957;SDS011;41120;51.820;20.804;2024-01-15T07:48:50;21.83;;;12.00;;
51957;SDS011;41120;51.820;20.804;2024-01-15T07:53:55;14.60;;;9.13;;
51957;SDS011;41120;51.820;20.804;2024-01-15T07:56:23;16.33;;;9.65;;
51957;SDS011;41120;51.820;20.804;2024-01-15T07:59:08;17.23;;;10.25;;
51957;SDS011;41120;51.820;20.804;2024-01-15T08:01:36;20.05;;;12.07;;
51957;SDS011;41120;51.820;20.804;2024-01-15T08:04:22;14.90;;;8.68;;
51957;SDS011;41120;51.820;20.804;2024-01-15T08:09:55;14.60;;;8.57;;
51957;SDS011;41120;51.820;20.804;2024-01-15T08:15:22;16.73;;;9.07;;
51957;SDS011;41120;51.820;20.804;2024-01-15T08:21:11;14.40;;;8.10;;
51957;SDS011;41120;51.820;20.804;2024-01-15T08:23:46;16.92;;;8.85;;
51957;SDS011;41120;51.820;20.804;2024-01-15T08:26:17;14.10;;;8.50;;
51957;SDS011;41120;51.820;20.804;2024-01-15T08:28:43;14.02;;;8.07;;
51957;SDS011;41120;51.820;20.804;2024-01-15T08:39:35;13.82;;;7.70;;
51957;SDS011;41120;51.820;20.804;2024-01-15T08:42:11;14.13;;;7.40;;
51957;SDS011;41120;51.820;20.804;2024-01-15T08:44:42;13.52;;;7.50;;
51957;SDS011;41120;51.820;20.804;2024-01-15T08:52:20;15.82;;;9.05;;
51957;SDS011;41120;51.820;20.804;2024-01-15T08:55:01;11.52;;;6.57;;
51957;SDS011;41120;51.820;20.804;2024-01-15T08:57:29;11.57;;;6.15;;
51957;SDS011;41120;51.820;20.804;2024-01-15T09:02:28;9.32;;;6.05;;
51957;SDS011;41120;51.820;20.804;2024-01-15T09:05:01;10.52;;;6.00;;
51957;SDS011;41120;51.820;20.804;2024-01-15T09:07:28;9.82;;;5.55;;
51957;SDS011;41120;51.820;20.804;2024-01-15T09:12:32;9.40;;;5.32;;
51957;SDS011;41120;51.820;20.804;2024-01-15T09:15:00;12.48;;;5.20;;
51957;SDS011;41120;51.820;20.804;2024-01-15T09:17:35;8.40;;;4.43;;
51957;SDS011;41120;51.820;20.804;2024-01-15T09:20:02;7.50;;;4.43;;
51957;SDS011;41120;51.820;20.804;2024-01-15T09:22:49;7.25;;;4.03;;
51957;SDS011;41120;51.820;20.804;2024-01-15T09:25:51;7.28;;;3.67;;
51957;SDS011;41120;51.820;20.804;2024-01-15T09:28:18;7.78;;;3.42;;
51957;SDS011;41120;51.820;20.804;2024-01-15T09:30:49;5.90;;;3.53;;
51957;SDS011;41120;51.820;20.804;2024-01-15T09:35:52;8.85;;;4.35;;
51957;SDS011;41120;51.820;20.804;2024-01-15T09:38:56;6.72;;;3.97;;
51957;SDS011;41120;51.820;20.804;2024-01-15T09:41:28;8.32;;;4.30;;
51957;SDS011;41120;51.820;20.804;2024-01-15T09:43:55;8.48;;;4.35;;
51957;SDS011;41120;51.820;20.804;2024-01-15T09:46:22;6.60;;;4.05;;
51957;SDS011;41120;51.820;20.804;2024-01-15T09:48:49;7.53;;;4.93;;
51957;SDS011;41120;51.820;20.804;2024-01-15T09:56:24;9.18;;;5.30;;
51957;SDS011;41120;51.820;20.804;2024-01-15T09:58:57;10.45;;;6.07;;
51957;SDS011;41120;51.820;20.804;2024-01-15T10:04:47;9.60;;;5.72;;
51957;SDS011;41120;51.820;20.804;2024-01-15T10:10:00;10.57;;;5.53;;
51957;SDS011;41120;51.820;20.804;2024-01-15T10:12:32;9.23;;;5.82;;
51957;SDS011;41120;51.820;20.804;2024-01-15T10:15:13;13.02;;;7.13;;
51957;SDS011;41120;51.820;20.804;2024-01-15T10:17:50;10.18;;;6.03;;
51957;SDS011;41120;51.820;20.804;2024-01-15T10:20:16;9.10;;;5.85;;
51957;SDS011;41120;51.820;20.804;2024-01-15T10:25:35;9.93;;;5.72;;
51957;SDS011;41120;51.820;20.804;2024-01-15T10:28:13;11.02;;;6.10;;
51957;SDS011;41120;51.820;20.804;2024-01-15T10:30:56;9.68;;;4.75;;
51957;SDS011;41120;51.820;20.804;2024-01-15T10:33:22;12.60;;;6.80;;
51957;SDS011;41120;51.820;20.804;2024-01-15T10:38:31;11.57;;;6.35;;
51957;SDS011;41120;51.820;20.804;2024-01-15T10:47:11;10.10;;;5.68;;
51957;SDS011;41120;51.820;20.804;2024-01-15T10:55:35;12.38;;;5.60;;
51957;SDS011;41120;51.820;20.804;2024-01-15T10:58:05;10.88;;;5.60;;
51957;SDS011;41120;51.820;20.804;2024-01-15T11:04:14;14.82;;;7.53;;
51957;SDS011;41120;51.820;20.804;2024-01-15T11:06:45;18.25;;;9.80;;
51957;SDS011;41120;51.820;20.804;2024-01-15T11:09:14;15.63;;;6.90;;
51957;SDS011;41120;51.820;20.804;2024-01-15T11:11:43;12.07;;;6.10;;
51957;SDS011;41120;51.820;20.804;2024-01-15T11:14:11;13.07;;;6.03;;
51957;SDS011;41120;51.820;20.804;2024-01-15T11:23:06;11.43;;;5.55;;
51957;SDS011;41120;51.820;20.804;2024-01-15T11:25:37;11.68;;;5.90;;
51957;SDS011;41120;51.820;20.804;2024-01-15T11:28:46;10.57;;;5.60;;
51957;SDS011;41120;51.820;20.804;2024-01-15T11:31:12;15.90;;;6.18;;
51957;SDS011;41120;51.820;20.804;2024-01-15T11:36:13;14.05;;;7.97;;
51957;SDS011;41120;51.820;20.804;2024-01-15T11:38:40;11.50;;;6.72;;
51957;SDS011;41120;51.820;20.804;2024-01-15T11:44:22;12.43;;;6.20;;
51957;SDS011;41120;51.820;20.804;2024-01-15T11:47:07;11.07;;;5.65;;
51957;SDS011;41120;51.820;20.804;2024-01-15T11:49:52;10.18;;;5.25;;
51957;SDS011;41120;51.820;20.804;2024-01-15T11:52:25;11.57;;;5.72;;
51957;SDS011;41120;51.820;20.804;2024-01-15T12:03:13;10.93;;;5.50;;
51957;SDS011;41120;51.820;20.804;2024-01-15T12:05:49;10.75;;;5.43;;
51957;SDS011;41120;51.820;20.804;2024-01-15T12:11:18;12.65;;;6.38;;
51957;SDS011;41120;51.820;20.804;2024-01-15T12:13:46;13.27;;;6.57;;
51957;SDS011;41120;51.820;20.804;2024-01-15T12:16:13;13.30;;;7.68;;
51957;SDS011;41120;51.820;20.804;2024-01-15T12:18:39;11.40;;;6.95;;
51957;SDS011;41120;51.820;20.804;2024-01-15T12:21:07;12.68;;;6.68;;
51957;SDS011;41120;51.820;20.804;2024-01-15T12:23:40;12.65;;;6.78;;
51957;SDS011;41120;51.820;20.804;2024-01-15T12:26:05;13.90;;;6.30;;
51957;SDS011;41120;51.820;20.804;2024-01-15T12:28:44;13.05;;;6.28;;
51957;SDS011;41120;51.820;20.804;2024-01-15T12:31:18;11.00;;;5.15;;
51957;SDS011;41120;51.820;20.804;2024-01-15T12:33:52;14.32;;;7.10;;
51957;SDS011;41120;51.820;20.804;2024-01-15T12:45:34;15.07;;;7.05;;
51957;SDS011;41120;51.820;20.804;2024-01-15T12:54:29;10.90;;;6.72;;
51957;SDS011;41120;51.820;20.804;2024-01-15T13:05:31;15.18;;;7.03;;
51957;SDS011;41120;51.820;20.804;2024-01-15T13:11:05;16.77;;;7.75;;
51957;SDS011;41120;51.820;20.804;2024-01-15T13:16:32;14.15;;;7.85;;
51957;SDS011;41120;51.820;20.804;2024-01-15T13:21:52;15.02;;;7.25;;
51957;SDS011;41120;51.820;20.804;2024-01-15T13:24:20;15.43;;;7.50;;
51957;SDS011;41120;51.820;20.804;2024-01-15T13:29:51;16.17;;;8.75;;
51957;SDS011;41120;51.820;20.804;2024-01-15T13:32:29;18.30;;;7.63;;
51957;SDS011;41120;51.820;20.804;2024-01-15T13:40:16;20.17;;;9.63;;
51957;SDS011;41120;51.820;20.804;2024-01-15T13:45:45;20.23;;;9.65;;
51957;SDS011;41120;51.820;20.804;2024-01-15T13:48:22;21.98;;;9.77;;
51957;SDS011;41120;51.820;20.804;2024-01-15T13:50:54;19.38;;;8.60;;
51957;SDS011;41120;51.820;20.804;2024-01-15T13:53:22;22.05;;;10.35;;
51957;SDS011;41120;51.820;20.804;2024-01-15T13:58:56;19.55;;;9.13;;
51957;SDS011;41120;51.820;20.804;2024-01-15T14:01:40;19.10;;;9.65;;
51957;SDS011;41120;51.820;20.804;2024-01-15T14:06:59;21.98;;;9.50;;
51957;SDS011;41120;51.820;20.804;2024-01-15T14:12:43;19.73;;;10.25;;
51957;SDS011;41120;51.820;20.804;2024-01-15T14:15:20;19.25;;;8.98;;
51957;SDS011;41120;51.820;20.804;2024-01-15T14:18:00;19.88;;;10.38;;
51957;SDS011;41120;51.820;20.804;2024-01-15T14:30:05;24.70;;;10.82;;
51957;SDS011;41120;51.820;20.804;2024-01-15T14:41:49;18.77;;;8.77;;
51957;SDS011;41120;51.820;20.804;2024-01-15T14:44:22;19.05;;;9.00;;
51957;SDS011;41120;51.820;20.804;2024-01-15T14:46:55;17.83;;;9.15;;
51957;SDS011;41120;51.820;20.804;2024-01-15T14:49:25;21.15;;;9.45;;
51957;SDS011;41120;51.820;20.804;2024-01-15T14:51:51;22.30;;;10.70;;
51957;SDS011;41120;51.820;20.804;2024-01-15T14:54:29;21.27;;;9.88;;
51957;SDS011;41120;51.820;20.804;2024-01-15T14:56:55;17.13;;;9.75;;
51957;SDS011;41120;51.820;20.804;2024-01-15T14:59:23;15.68;;;8.55;;
51957;SDS011;41120;51.820;20.804;2024-01-15T15:01:49;18.27;;;9.63;;
51957;SDS011;41120;51.820;20.804;2024-01-15T15:04:17;19.13;;;8.68;;
51957;SDS011;41120;51.820;20.804;2024-01-15T15:06:46;17.45;;;7.97;;
51957;SDS011;41120;51.820;20.804;2024-01-15T15:11:42;15.95;;;8.38;;
51957;SDS011;41120;51.820;20.804;2024-01-15T15:14:14;14.88;;;6.75;;
51957;SDS011;41120;51.820;20.804;2024-01-15T15:16:43;19.55;;;9.13;;
51957;SDS011;41120;51.820;20.804;2024-01-15T15:22:08;17.48;;;8.18;;
51957;SDS011;41120;51.820;20.804;2024-01-15T15:24:56;15.15;;;8.63;;
51957;SDS011;41120;51.820;20.804;2024-01-15T15:37:15;34.35;;;17.27;;
51957;SDS011;41120;51.820;20.804;2024-01-15T15:39:44;22.83;;;12.70;;
51957;SDS011;41120;51.820;20.804;2024-01-15T15:42:13;29.33;;;16.55;;
51957;SDS011;41120;51.820;20.804;2024-01-15T15:44:42;19.58;;;12.05;;
51957;SDS011;41120;51.820;20.804;2024-01-15T15:47:13;20.55;;;9.23;;
51957;SDS011;41120;51.820;20.804;2024-01-15T15:50:01;32.88;;;16.15;;
51957;SDS011;41120;51.820;20.804;2024-01-15T15:52:30;17.83;;;9.73;;
51957;SDS011;41120;51.820;20.804;2024-01-15T15:54:57;20.23;;;10.88;;
51957;SDS011;41120;51.820;20.804;2024-01-15T15:57:23;19.27;;;11.45;;
51957;SDS011;41120;51.820;20.804;2024-01-15T15:59:56;22.98;;;10.25;;
51957;SDS011;41120;51.820;20.804;2024-01-15T16:02:27;36.33;;;16.80;;
51957;SDS011;41120;51.820;20.804;2024-01-15T16:05:06;35.95;;;17.08;;
51957;SDS011;41120;51.820;20.804;2024-01-15T16:07:35;102.40;;;37.33;;
51957;SDS011;41120;51.820;20.804;2024-01-15T16:10:12;252.35;;;74.85;;
51957;SDS011;41120;51.820;20.804;2024-01-15T16:13:01;139.27;;;45.22;;
51957;SDS011;41120;51.820;20.804;2024-01-15T16:15:31;162.48;;;56.80;;
51957;SDS011;41120;51.820;20.804;2024-01-15T16:18:02;70.93;;;29.08;;
51957;SDS011;41120;51.820;20.804;2024-01-15T16:20:38;72.05;;;27.65;;
51957;SDS011;41120;51.820;20.804;2024-01-15T16:23:07;92.38;;;27.42;;
51957;SDS011;41120;51.820;20.804;2024-01-15T16:31:56;60.67;;;19.83;;
51957;SDS011;41120;51.820;20.804;2024-01-15T16:34:22;26.92;;;11.57;;
51957;SDS011;41120;51.820;20.804;2024-01-15T16:39:55;68.47;;;22.27;;
51957;SDS011;41120;51.820;20.804;2024-01-15T16:42:22;87.50;;;24.05;;
51957;SDS011;41120;51.820;20.804;2024-01-15T16:44:55;92.40;;;26.60;;
51957;SDS011;41120;51.820;20.804;2024-01-15T16:47:22;38.85;;;13.95;;
51957;SDS011;41120;51.820;20.804;2024-01-15T16:50:03;73.88;;;22.83;;
51957;SDS011;41120;51.820;20.804;2024-01-15T16:58:06;26.77;;;10.98;;
51957;SDS011;41120;51.820;20.804;2024-01-15T17:00:34;55.30;;;18.52;;
51957;SDS011;41120;51.820;20.804;2024-01-15T17:03:00;46.83;;;20.35;;
51957;SDS011;41120;51.820;20.804;2024-01-15T17:05:33;51.45;;;21.35;;
51957;SDS011;41120;51.820;20.804;2024-01-15T17:08:00;18.85;;;9.35;;
51957;SDS011;41120;51.820;20.804;2024-01-15T17:10:27;20.83;;;8.77;;
51957;SDS011;41120;51.820;20.804;2024-01-15T17:12:58;28.05;;;11.95;;
51957;SDS011;41120;51.820;20.804;2024-01-15T17:15:39;28.33;;;12.52;;
51957;SDS011;41120;51.820;20.804;2024-01-15T17:18:07;23.65;;;11.85;;
51957;SDS011;41120;51.820;20.804;2024-01-15T17:26:27;31.48;;;13.20;;
51957;SDS011;41120;51.820;20.804;2024-01-15T17:28:54;27.10;;;12.68;;
51957;SDS011;41120;51.820;20.804;2024-01-15T17:31:28;23.52;;;11.45;;
51957;SDS011;41120;51.820;20.804;2024-01-15T17:33:55;27.70;;;12.65;;
51957;SDS011;41120;51.820;20.804;2024-01-15T17:36:22;25.42;;;11.88;;
51957;SDS011;41120;51.820;20.804;2024-01-15T17:38:49;24.02;;;10.75;;
51957;SDS011;41120;51.820;20.804;2024-01-15T17:41:18;30.85;;;13.95;;
51957;SDS011;41120;51.820;20.804;2024-01-15T17:43:46;23.73;;;10.70;;
51957;SDS011;41120;51.820;20.804;2024-01-15T17:46:19;29.20;;;13.40;;
51957;SDS011;41120;51.820;20.804;2024-01-15T17:48:45;22.42;;;8.98;;
51957;SDS011;41120;51.820;20.804;2024-01-15T17:51:29;23.10;;;11.18;;
51957;SDS011;41120;51.820;20.804;2024-01-15T17:53:55;23.80;;;10.55;;
51957;SDS011;41120;51.820;20.804;2024-01-15T17:56:24;26.45;;;11.55;;
51957;SDS011;41120;51.820;20.804;2024-01-15T17:58:56;25.85;;;14.30;;
51957;SDS011;41120;51.820;20.804;2024-01-15T18:01:31;41.28;;;18.77;;
51957;SDS011;41120;51.820;20.804;2024-01-15T18:04:13;42.28;;;19.52;;
51957;SDS011;41120;51.820;20.804;2024-01-15T18:12:16;40.08;;;17.35;;
51957;SDS011;41120;51.820;20.804;2024-01-15T18:14:55;35.40;;;15.85;;
51957;SDS011;41120;51.820;20.804;2024-01-15T18:22:55;22.20;;;10.15;;
51957;SDS011;41120;51.820;20.804;2024-01-15T18:25:40;25.45;;;13.07;;
51957;SDS011;41120;51.820;20.804;2024-01-15T18:28:15;43.47;;;19.45;;
51957;SDS011;41120;51.820;20.804;2024-01-15T18:30:59;22.92;;;9.45;;
51957;SDS011;41120;51.820;20.804;2024-01-15T18:33:37;17.33;;;9.40;;
51957;SDS011;41120;51.820;20.804;2024-01-15T18:39:38;19.30;;;10.35;;
51957;SDS011;41120;51.820;20.804;2024-01-15T18:42:17;18.27;;;9.18;;
51957;SDS011;41120;51.820;20.804;2024-01-15T18:44:48;28.02;;;19.80;;
51957;SDS011;41120;51.820;20.804;2024-01-15T18:47:17;16.60;;;8.77;;
51957;SDS011;41120;51.820;20.804;2024-01-15T18:49:52;20.92;;;10.32;;
51957;SDS011;41120;51.820;20.804;2024-01-15T18:52:19;18.48;;;9.80;;
51957;SDS011;41120;51.820;20.804;2024-01-15T18:54:48;16.23;;;8.07;;
51957;SDS011;41120;51.820;20.804;2024-01-15T18:57:16;15.48;;;7.63;;
51957;SDS011;41120;51.820;20.804;2024-01-15T18:59:42;14.35;;;7.72;;
51957;SDS011;41120;51.820;20.804;2024-01-15T19:07:20;15.27;;;8.10;;
51957;SDS011;41120;51.820;20.804;2024-01-15T19:09:52;19.17;;;9.20;;
51957;SDS011;41120;51.820;20.804;2024-01-15T19:12:52;20.92;;;10.73;;
51957;SDS011;41120;51.820;20.804;2024-01-15T19:15:21;22.10;;;10.55;;
51957;SDS011;41120;51.820;20.804;2024-01-15T19:17:50;18.30;;;9.70;;
51957;SDS011;41120;51.820;20.804;2024-01-15T19:29:03;3.03;;;1.88;;
51957;SDS011;41120;51.820;20.804;2024-01-15T19:35:32;4.20;;;2.80;;
51957;SDS011;41120;51.820;20.804;2024-01-15T19:55:59;13.43;;;7.32;;
51957;SDS011;41120;51.820;20.804;2024-01-15T20:04:42;11.73;;;7.32;;
51957;SDS011;41120;51.820;20.804;2024-01-15T20:22:22;9.25;;;6.03;;
51957;SDS011;41120;51.820;20.804;2024-01-15T20:35:26;40.22;;;15.10;;
51957;SDS011;41120;51.820;20.804;2024-01-15T20:38:55;36.65;;;14.27;;
51957;SDS011;41120;51.820;20.804;2024-01-15T20:41:40;17.17;;;6.82;;
51957;SDS011;41120;51.820;20.804;2024-01-15T20:44:32;25.10;;;7.95;;
51957;SDS011;41120;51.820;20.804;2024-01-15T20:51:15;8.48;;;3.65;;
51957;SDS011;41120;51.820;20.804;2024-01-15T20:53:46;6.03;;;3.20;;
51957;SDS011;41120;51.820;20.804;2024-01-15T21:01:51;8.98;;;3.20;;
51957;SDS011;41120;51.820;20.804;2024-01-15T21:04:18;6.63;;;2.40;;
51957;SDS011;41120;51.820;20.804;2024-01-15T21:06:51;8.82;;;3.75;;
51957;SDS011;41120;51.820;20.804;2024-01-15T21:09:22;11.30;;;4.80;;
51957;SDS011;41120;51.820;20.804;2024-01-15T21:11:54;9.35;;;3.35;;
51957;SDS011;41120;51.820;20.804;2024-01-15T21:14:22;13.32;;;5.50;;
51957;SDS011;41120;51.820;20.804;2024-01-15T21:17:00;8.43;;;4.00;;
51957;SDS011;41120;51.820;20.804;2024-01-15T21:19:57;10.63;;;4.35;;
51957;SDS011;41120;51.820;20.804;2024-01-15T21:22:28;9.10;;;4.22;;
51957;SDS011;41120;51.820;20.804;2024-01-15T21:25:01;18.38;;;5.95;;
51957;SDS011;41120;51.820;20.804;2024-01-15T21:27:28;15.00;;;4.63;;
51957;SDS011;41120;51.820;20.804;2024-01-15T21:32:27;7.85;;;3.22;;
51957;SDS011;41120;51.820;20.804;2024-01-15T21:46:39;10.82;;;4.10;;
51957;SDS011;41120;51.820;20.804;2024-01-15T21:49:13;9.32;;;3.03;;
51957;SDS011;41120;51.820;20.804;2024-01-15T21:54:54;5.47;;;2.88;;
51957;SDS011;41120;51.820;20.804;2024-01-15T21:57:33;8.98;;;2.53;;
51957;SDS011;41120;51.820;20.804;2024-01-15T22:03:04;7.93;;;2.95;;
51957;SDS011;41120;51.820;20.804;2024-01-15T22:05:33;6.57;;;2.88;;
51957;SDS011;41120;51.820;20.804;2024-01-15T22:15:13;7.30;;;2.80;;
51957;SDS011;41120;51.820;20.804;2024-01-15T22:18:08;6.05;;;2.35;;
51957;SDS011;41120;51.820;20.804;2024-01-15T22:37:44;8.68;;;3.90;;
51957;SDS011;41120;51.820;20.804;2024-01-15T22:40:24;10.70;;;3.35;;
51957;SDS011;41120;51.820;20.804;2024-01-15T22:52:44;7.22;;;3.75;;
51957;SDS011;41120;51.820;20.804;2024-01-15T22:55:49;12.50;;;5.47;;
51957;SDS011;41120;51.820;20.804;2024-01-15T23:11:11;5.30;;;3.00;;
51957;SDS011;41120;51.820;20.804;2024-01-15T23:17:47;6.95;;;3.42;;
51957;SDS011;41120;51.820;20.804;2024-01-15T23:20:27;4.97;;;2.30;;
51957;SDS011;41120;51.820;20.804;2024-01-15T23:23:10;6.18;;;3.53;;
51957;SDS011;41120;51.820;20.804;2024-01-15T23:55:53;2.22;;;1.50;;
